createdAt,value
2019-04-03T00:00:43.992Z,8.73
2019-04-03T00:03:13.446Z,9.07
2019-04-03T00:05:43.106Z,9.00
2019-04-03T00:08:12.614Z,8.53
2019-04-03T00:10:42.604Z,8.33
2019-04-03T00:13:12.088Z,8.90
2019-04-03T00:15:42.798Z,9.47
2019-04-03T00:18:12.719Z,8.70
2019-04-03T00:20:42.226Z,8.37
2019-04-03T00:23:11.838Z,8.47
2019-04-03T00:25:41.560Z,9.50
2019-04-03T00:28:11.039Z,8.90
2019-04-03T00:30:40.537Z,9.13
2019-04-03T00:33:10.059Z,8.80
2019-04-03T00:35:39.519Z,8.50
2019-04-03T00:38:08.961Z,9.60
2019-04-03T00:40:38.600Z,8.90
2019-04-03T00:43:08.220Z,8.73
2019-04-03T00:45:37.783Z,9.00
2019-04-03T00:48:07.277Z,9.30
2019-04-03T00:50:36.692Z,9.23
2019-04-03T00:53:06.234Z,8.97
2019-04-03T00:55:35.819Z,9.13
2019-04-03T00:58:40.381Z,8.50
2019-04-03T01:01:11.785Z,8.73
2019-04-03T01:03:41.497Z,9.40
2019-04-03T01:06:11.532Z,8.93
2019-04-03T01:08:41.189Z,9.27
2019-04-03T01:11:10.779Z,9.57
2019-04-03T01:13:40.471Z,9.30
2019-04-03T01:16:10.205Z,9.27
2019-04-03T01:18:39.672Z,9.47
2019-04-03T01:21:09.093Z,9.77
2019-04-03T01:23:38.510Z,9.20
2019-04-03T01:26:10.061Z,8.80
2019-04-03T01:28:41.348Z,9.27
2019-04-03T01:31:10.367Z,9.30
2019-04-03T01:33:39.921Z,9.27
2019-04-03T01:36:09.631Z,9.30
2019-04-03T01:38:39.152Z,9.33
2019-04-03T01:41:08.582Z,9.60
2019-04-03T01:43:38.558Z,9.87
2019-04-03T01:46:08.242Z,9.80
2019-04-03T01:48:37.700Z,9.70
2019-04-03T01:51:07.220Z,8.93
2019-04-03T01:53:36.802Z,9.03
2019-04-03T01:56:06.389Z,9.17
2019-04-03T01:58:36.517Z,9.30
2019-04-03T02:01:08.051Z,9.40
2019-04-03T02:03:37.762Z,8.97
2019-04-03T02:06:07.220Z,9.77
2019-04-03T02:08:36.675Z,9.37
2019-04-03T02:11:06.650Z,9.27
2019-04-03T02:13:36.130Z,9.33
2019-04-03T02:16:05.575Z,9.93
2019-04-03T02:18:35.140Z,8.67
2019-04-03T02:21:04.815Z,10.17
2019-04-03T02:23:34.219Z,9.27
2019-04-03T02:26:04.586Z,9.17
2019-04-03T02:28:34.961Z,9.43
2019-04-03T02:31:04.735Z,9.23
2019-04-03T02:33:34.163Z,9.77
2019-04-03T02:36:03.672Z,9.53
2019-04-03T02:38:33.177Z,10.30
2019-04-03T02:41:04.001Z,9.77
2019-04-03T02:43:33.810Z,9.90
2019-04-03T02:46:03.534Z,10.20
2019-04-03T02:48:33.014Z,9.07
2019-04-03T02:51:02.934Z,9.73
2019-04-03T02:53:32.392Z,10.33
2019-04-03T02:56:01.959Z,9.57
2019-04-03T02:58:31.454Z,10.53
2019-04-03T03:01:05.557Z,10.83
2019-04-03T03:03:32.451Z,9.90
2019-04-03T03:06:01.948Z,9.87
2019-04-03T03:08:31.888Z,10.30
2019-04-03T03:11:03.363Z,9.97
2019-04-03T03:13:35.175Z,11.00
2019-04-03T03:16:05.291Z,9.73
2019-04-03T03:18:35.572Z,9.63
2019-04-03T03:21:05.725Z,9.93
2019-04-03T03:23:35.889Z,10.87
2019-04-03T03:26:06.333Z,10.50
2019-04-03T03:28:36.115Z,9.77
2019-04-03T03:31:07.501Z,10.20
2019-04-03T03:33:40.075Z,10.17
2019-04-03T03:36:09.531Z,11.03
2019-04-03T03:38:40.774Z,10.47
2019-04-03T03:41:10.833Z,11.10
2019-04-03T03:43:40.807Z,10.50
2019-04-03T03:46:11.271Z,11.10
2019-04-03T03:48:43.974Z,10.80
2019-04-03T03:51:14.393Z,11.13
2019-04-03T03:53:45.949Z,11.20
2019-04-03T03:56:18.355Z,11.20
2019-04-03T03:58:48.988Z,10.97
2019-04-03T04:01:19.197Z,10.70
2019-04-03T04:03:48.929Z,11.03
2019-04-03T04:06:19.245Z,10.97
2019-04-03T04:08:49.003Z,11.33
2019-04-03T04:11:20.078Z,11.47
2019-04-03T04:13:50.042Z,11.70
2019-04-03T04:16:21.042Z,10.80
2019-04-03T04:18:51.001Z,11.00
2019-04-03T04:21:21.615Z,11.87
2019-04-03T04:23:51.161Z,10.93
2019-04-03T04:26:21.136Z,10.77
2019-04-03T04:28:50.614Z,10.50
2019-04-03T04:31:20.086Z,11.37
2019-04-03T04:33:49.605Z,10.97
2019-04-03T04:36:19.303Z,12.33
2019-04-03T04:38:48.782Z,11.53
2019-04-03T04:41:18.378Z,11.60
2019-04-03T04:43:47.848Z,11.33
2019-04-03T04:46:17.272Z,12.67
2019-04-03T04:48:46.776Z,12.93
2019-04-03T04:51:16.310Z,12.00
2019-04-03T04:53:45.760Z,12.60
2019-04-03T04:56:15.438Z,11.23
2019-04-03T04:58:44.964Z,12.03
2019-04-03T05:01:17.112Z,11.17
2019-04-03T05:03:45.734Z,11.80
2019-04-03T05:06:15.478Z,11.17
2019-04-03T05:08:45.206Z,12.23
2019-04-03T05:11:15.935Z,11.90
2019-04-03T05:13:46.878Z,11.60
2019-04-03T05:16:19.808Z,11.90
2019-04-03T05:18:48.345Z,11.80
2019-04-03T05:21:17.944Z,12.00
2019-04-03T05:23:47.541Z,11.73
2019-04-03T05:26:17.019Z,12.17
2019-04-03T05:28:54.594Z,11.70
2019-04-03T05:31:17.770Z,11.57
2019-04-03T05:33:47.320Z,13.07
2019-04-03T05:36:17.731Z,12.70
2019-04-03T05:38:47.999Z,12.13
2019-04-03T05:41:17.434Z,12.00
2019-04-03T05:43:47.011Z,11.83
2019-04-03T05:46:19.095Z,12.17
2019-04-03T05:48:48.597Z,12.37
2019-04-03T05:51:18.494Z,12.43
2019-04-03T05:53:48.009Z,12.57
2019-04-03T05:56:17.623Z,12.50
2019-04-03T05:58:55.686Z,12.77
2019-04-03T06:01:18.275Z,13.00
2019-04-03T06:03:47.771Z,12.70
2019-04-03T06:06:17.304Z,12.83
2019-04-03T06:08:46.813Z,12.73
2019-04-03T06:11:16.542Z,12.87
2019-04-03T06:13:48.033Z,13.23
2019-04-03T06:16:17.338Z,13.23
2019-04-03T06:18:47.615Z,13.30
2019-04-03T06:21:17.902Z,13.70
2019-04-03T06:23:47.572Z,13.07
2019-04-03T06:26:17.198Z,14.47
2019-04-03T06:28:47.730Z,13.97
2019-04-03T06:31:17.442Z,14.00
2019-04-03T06:33:46.889Z,13.63
2019-04-03T06:36:17.550Z,13.90
2019-04-03T06:38:47.966Z,13.57
2019-04-03T06:41:17.442Z,13.30
2019-04-03T06:43:49.445Z,14.97
2019-04-03T06:46:18.040Z,13.07
2019-04-03T06:48:47.710Z,14.03
2019-04-03T06:51:17.220Z,13.97
2019-04-03T06:53:46.730Z,15.20
2019-04-03T06:56:16.368Z,14.63
2019-04-03T06:58:45.973Z,13.63
2019-04-03T07:01:15.677Z,14.23
2019-04-03T07:03:45.168Z,14.17
2019-04-03T07:06:15.056Z,15.07
2019-04-03T07:08:44.809Z,14.50
2019-04-03T07:11:23.150Z,14.00
2019-04-03T07:13:45.837Z,13.63
2019-04-03T07:16:15.651Z,13.30
2019-04-03T07:18:45.106Z,14.37
2019-04-03T07:21:14.876Z,13.80
2019-04-03T07:23:44.403Z,14.03
2019-04-03T07:26:14.125Z,13.83
2019-04-03T07:28:43.593Z,14.07
2019-04-03T07:31:13.187Z,13.60
2019-04-03T07:33:42.965Z,12.93
2019-04-03T07:36:12.449Z,13.67
2019-04-03T07:38:41.869Z,13.43
2019-04-03T07:41:11.491Z,13.33
2019-04-03T07:43:41.083Z,13.50
2019-04-03T07:46:10.603Z,13.10
2019-04-03T07:48:40.101Z,13.70
2019-04-03T07:51:12.727Z,13.70
2019-04-03T07:53:41.129Z,13.00
2019-04-03T07:56:11.025Z,13.07
2019-04-03T07:58:40.671Z,12.73
2019-04-03T08:01:11.174Z,20.77
2019-04-03T08:03:40.785Z,14.17
2019-04-03T08:06:10.550Z,12.93
2019-04-03T08:08:40.102Z,13.90
2019-04-03T08:11:10.087Z,13.40
2019-04-03T08:13:39.812Z,13.20
2019-04-03T08:16:09.442Z,14.10
2019-04-03T08:18:38.928Z,13.30
2019-04-03T08:21:08.466Z,12.47
2019-04-03T08:23:38.214Z,13.47
2019-04-03T08:26:10.964Z,13.13
2019-04-03T08:28:39.228Z,12.20
2019-04-03T08:31:11.558Z,13.57
2019-04-03T08:33:40.372Z,13.30
2019-04-03T08:36:22.536Z,12.43
2019-04-03T08:38:44.015Z,13.50
2019-04-03T08:41:12.689Z,12.67
2019-04-03T08:43:42.286Z,12.93
2019-04-03T08:46:12.112Z,13.43
2019-04-03T08:48:41.759Z,14.00
2019-04-03T08:51:11.302Z,12.07
2019-04-03T08:53:41.155Z,12.77
2019-04-03T08:56:10.952Z,11.83
2019-04-03T08:58:40.584Z,12.60
2019-04-03T09:01:11.099Z,12.70
2019-04-03T09:03:40.860Z,12.43
2019-04-03T09:06:10.510Z,12.00
2019-04-03T09:08:40.168Z,12.27
2019-04-03T09:11:09.709Z,11.30
2019-04-03T09:13:39.543Z,12.90
2019-04-03T09:16:10.617Z,12.07
2019-04-03T09:18:40.927Z,12.93
2019-04-03T09:21:10.521Z,11.90
2019-04-03T09:23:40.075Z,11.37
2019-04-03T09:26:09.621Z,11.83
2019-04-03T09:28:41.141Z,11.37
2019-04-03T09:31:10.454Z,11.70
2019-04-03T09:33:40.587Z,12.40
2019-04-03T09:36:10.421Z,12.33
2019-04-03T09:38:41.472Z,11.43
2019-04-03T09:41:11.552Z,11.67
2019-04-03T09:43:41.090Z,10.93
2019-04-03T09:46:10.809Z,11.40
2019-04-03T09:48:40.465Z,10.73
2019-04-03T09:51:09.949Z,11.03
2019-04-03T09:53:39.499Z,10.73
2019-04-03T09:56:09.295Z,9.87
2019-04-03T09:58:38.984Z,10.10
2019-04-03T10:01:08.508Z,10.87
2019-04-03T10:03:38.174Z,10.37
2019-04-03T10:06:07.931Z,10.10
2019-04-03T10:08:39.743Z,10.10
2019-04-03T10:11:08.956Z,10.13
2019-04-03T10:13:38.425Z,9.77
2019-04-03T10:16:08.240Z,9.67
2019-04-03T10:18:40.855Z,10.20
2019-04-03T10:21:09.044Z,10.87
2019-04-03T10:23:38.677Z,10.27
2019-04-03T10:26:09.504Z,10.40
2019-04-03T10:28:42.113Z,10.37
2019-04-03T10:31:10.532Z,10.37
2019-04-03T10:33:40.047Z,10.00
2019-04-03T10:36:11.042Z,9.60
2019-04-03T10:38:42.306Z,10.50
2019-04-03T10:41:12.308Z,11.30
2019-04-03T10:43:42.139Z,10.30
2019-04-03T10:46:12.095Z,10.00
2019-04-03T10:48:41.765Z,10.40
2019-04-03T10:51:11.301Z,10.13
2019-04-03T10:53:40.916Z,10.30
2019-04-03T10:56:10.545Z,10.83
2019-04-03T10:58:42.206Z,11.27
2019-04-03T11:01:11.375Z,10.33
2019-04-03T11:03:41.078Z,10.30
2019-04-03T11:06:10.995Z,9.50
2019-04-03T11:08:53.547Z,10.30
2019-04-03T11:11:23.780Z,10.93
2019-04-03T11:13:53.501Z,10.40
2019-04-03T11:16:24.379Z,10.87
2019-04-03T11:18:59.927Z,12.03
2019-04-03T11:21:25.419Z,11.97
2019-04-03T11:23:55.221Z,11.20
2019-04-03T11:26:25.488Z,13.10
2019-04-03T11:28:55.629Z,12.10
2019-04-03T11:31:28.386Z,11.87
2019-04-03T11:33:57.174Z,11.90
2019-04-03T11:36:30.630Z,12.47
2019-04-03T11:39:12.451Z,11.90
2019-04-03T11:41:34.465Z,12.17
2019-04-03T11:44:04.328Z,12.83
2019-04-03T11:46:34.225Z,12.13
2019-04-03T11:49:03.927Z,12.03
2019-04-03T11:51:34.475Z,12.73
2019-04-03T11:54:06.870Z,11.70
2019-04-03T11:56:35.863Z,12.20
2019-04-03T11:59:05.665Z,11.97
2019-04-03T12:01:35.305Z,12.17
2019-04-03T12:04:05.109Z,11.20
2019-04-03T12:06:34.743Z,12.37
2019-04-03T12:09:07.088Z,11.60
2019-04-03T12:11:38.375Z,11.37
2019-04-03T12:14:08.474Z,10.33
2019-04-03T12:16:39.278Z,10.77
2019-04-03T12:19:09.165Z,11.17
2019-04-03T12:21:39.207Z,10.20
2019-04-03T12:24:08.737Z,10.53
2019-04-03T12:26:38.719Z,10.13
2019-04-03T12:29:08.416Z,10.43
2019-04-03T12:31:38.005Z,10.60
2019-04-03T12:34:07.602Z,9.80
2019-04-03T12:36:37.583Z,10.93
2019-04-03T12:39:30.927Z,10.67
2019-04-03T12:42:00.484Z,10.37
2019-04-03T12:44:29.977Z,10.73
2019-04-03T12:46:59.564Z,11.93
2019-04-03T12:49:29.021Z,11.20
2019-04-03T12:51:58.924Z,9.87
2019-04-03T12:54:28.404Z,10.07
2019-04-03T12:57:00.252Z,10.13
2019-04-03T12:59:29.379Z,10.70
2019-04-03T13:01:59.356Z,9.97
2019-04-03T13:04:31.169Z,10.07
2019-04-03T13:07:00.148Z,10.63
2019-04-03T13:09:29.775Z,9.40
2019-04-03T13:11:59.403Z,10.20
2019-04-03T13:14:31.466Z,10.43
2019-04-03T13:17:00.018Z,10.33
2019-04-03T13:19:29.519Z,10.07
2019-04-03T13:21:59.350Z,11.03
2019-04-03T13:24:29.342Z,11.30
2019-04-03T13:26:59.603Z,11.27
2019-04-03T13:29:29.680Z,11.27
2019-04-03T13:31:59.154Z,11.00
2019-04-03T13:34:31.106Z,10.77
2019-04-03T13:36:59.759Z,11.43
2019-04-03T13:39:30.939Z,12.70
2019-04-03T13:42:00.596Z,12.07
2019-04-03T13:44:30.141Z,11.87
2019-04-03T13:46:59.624Z,11.93
2019-04-03T13:49:30.746Z,12.23
2019-04-03T13:52:05.363Z,12.40
2019-04-03T13:54:31.686Z,11.10
2019-04-03T13:57:01.290Z,10.23
2019-04-03T13:59:31.773Z,12.00
2019-04-03T14:02:01.428Z,11.50
2019-04-03T14:04:31.264Z,11.50
2019-04-03T14:07:03.251Z,11.90
2019-04-03T14:09:32.180Z,11.23
2019-04-03T14:12:04.882Z,11.27
2019-04-03T14:14:33.041Z,11.90
2019-04-03T14:17:05.483Z,11.47
2019-04-03T14:19:43.300Z,11.17
2019-04-03T14:22:05.257Z,11.13
2019-04-03T14:24:41.322Z,10.93
2019-04-03T14:27:18.870Z,11.47
2019-04-03T14:29:39.248Z,10.73
2019-04-03T14:32:09.168Z,11.03
2019-04-03T14:34:40.223Z,11.03
2019-04-03T14:37:10.811Z,11.07
2019-04-03T14:39:41.482Z,11.30
2019-04-03T14:42:11.611Z,10.70
2019-04-03T14:44:42.276Z,11.10
2019-04-03T14:47:12.498Z,11.20
2019-04-03T14:49:42.006Z,11.20
2019-04-03T14:52:11.763Z,11.57
2019-04-03T14:54:41.475Z,10.70
2019-04-03T14:57:19.813Z,11.23
2019-04-03T14:59:42.242Z,10.90
2019-04-03T15:02:11.756Z,11.70
2019-04-03T15:04:41.398Z,11.83
2019-04-03T15:07:11.031Z,11.23
2019-04-03T15:09:40.877Z,11.00
2019-04-03T15:12:12.205Z,11.10
2019-04-03T15:14:41.736Z,11.20
2019-04-03T15:17:11.548Z,10.63
2019-04-03T15:19:41.337Z,10.80
2019-04-03T15:22:11.141Z,11.43
2019-04-03T15:24:43.385Z,11.00
2019-04-03T15:27:12.246Z,10.80
2019-04-03T15:29:41.982Z,11.23
2019-04-03T15:32:11.589Z,10.50
2019-04-03T15:34:41.425Z,11.17
2019-04-03T15:37:13.948Z,9.87
2019-04-03T15:39:42.495Z,10.83
2019-04-03T15:42:12.253Z,10.03
2019-04-03T15:44:42.085Z,10.20
2019-04-03T15:47:11.653Z,10.13
2019-04-03T15:49:41.213Z,10.07
2019-04-03T15:52:11.958Z,9.50
2019-04-03T15:54:41.884Z,10.03
2019-04-03T15:57:11.519Z,9.37
2019-04-03T15:59:41.039Z,9.87
2019-04-03T16:02:12.456Z,9.63
2019-04-03T16:04:41.970Z,9.57
2019-04-03T16:07:11.382Z,9.57
2019-04-03T16:09:40.807Z,9.80
2019-04-03T16:12:10.414Z,9.87
2019-04-03T16:14:39.934Z,10.17
2019-04-03T16:17:09.745Z,9.70
2019-04-03T16:19:40.844Z,9.23
2019-04-03T16:22:11.591Z,9.13
2019-04-03T16:24:43.381Z,9.97
2019-04-03T16:27:12.845Z,10.47
2019-04-03T16:29:42.593Z,8.50
2019-04-03T16:32:12.729Z,9.40
2019-04-03T16:34:42.699Z,9.87
2019-04-03T16:37:12.871Z,9.57
2019-04-03T16:39:42.352Z,8.80
2019-04-03T16:42:11.969Z,9.00
2019-04-03T16:44:41.611Z,9.10
2019-04-03T16:47:12.929Z,9.17
2019-04-03T16:49:42.354Z,9.43
2019-04-03T16:52:11.837Z,9.20
2019-04-03T16:54:47.414Z,9.07
2019-04-03T16:57:17.432Z,8.73
2019-04-03T16:59:48.526Z,8.37
2019-04-03T17:02:19.149Z,9.00
2019-04-03T17:04:49.503Z,9.13
2019-04-03T17:07:20.558Z,8.97
2019-04-03T17:09:50.223Z,8.83
2019-04-03T17:12:39.110Z,10.20
2019-04-03T17:15:09.782Z,9.07
2019-04-03T17:17:39.995Z,8.73
2019-04-03T17:20:10.953Z,9.50
2019-04-03T17:22:41.346Z,8.90
2019-04-03T17:25:11.812Z,9.00
2019-04-03T17:27:41.548Z,8.90
2019-04-03T17:30:13.499Z,9.43
2019-04-03T17:32:43.460Z,8.73
2019-04-03T17:35:14.579Z,8.63
2019-04-03T17:37:44.779Z,9.20
2019-04-03T17:40:14.486Z,8.90
2019-04-03T17:42:44.062Z,9.57
2019-04-03T17:45:15.577Z,9.03
2019-04-03T17:47:45.011Z,9.17
2019-04-03T17:50:14.990Z,9.47
2019-04-03T17:52:44.969Z,9.10
2019-04-03T17:55:14.722Z,9.57
2019-04-03T17:57:45.596Z,9.23
2019-04-03T18:00:20.490Z,9.20
2019-04-03T18:02:49.069Z,8.77
2019-04-03T18:05:18.732Z,9.37
2019-04-03T18:07:48.406Z,9.13
2019-04-03T18:10:18.410Z,10.00
2019-04-03T18:12:48.014Z,9.33
2019-04-03T18:15:18.277Z,9.23
2019-04-03T18:17:47.934Z,8.97
2019-04-03T18:20:17.952Z,8.50
2019-04-03T18:22:50.344Z,9.23
2019-04-03T18:25:18.754Z,9.43
2019-04-03T18:27:48.501Z,10.10
2019-04-03T18:30:18.995Z,8.80
2019-04-03T18:32:48.566Z,9.30
2019-04-03T18:35:18.074Z,8.93
2019-04-03T18:37:47.613Z,9.67
2019-04-03T18:40:17.284Z,9.70
2019-04-03T18:42:49.367Z,9.40
2019-04-03T18:45:24.944Z,9.60
2019-04-03T18:47:55.246Z,9.33
2019-04-03T18:50:25.019Z,9.77
2019-04-03T18:52:55.005Z,10.30
2019-04-03T18:55:24.876Z,10.37
2019-04-03T18:57:54.345Z,10.13
2019-04-03T19:00:24.085Z,9.70
2019-04-03T19:02:53.793Z,9.63
2019-04-03T19:05:23.479Z,10.17
2019-04-03T19:07:55.566Z,10.77
2019-04-03T19:10:24.654Z,10.10
2019-04-03T19:12:55.008Z,10.97
2019-04-03T19:15:24.711Z,11.07
2019-04-03T19:17:59.898Z,11.00
2019-04-03T19:20:25.439Z,10.60
2019-04-03T19:23:02.366Z,11.13
2019-04-03T19:25:29.403Z,11.93
2019-04-03T19:27:58.122Z,11.30
2019-04-03T19:30:28.704Z,10.47
2019-04-03T19:32:58.473Z,10.67
2019-04-03T19:35:28.588Z,10.77
2019-04-03T19:37:58.396Z,11.27
2019-04-03T19:40:27.979Z,10.60
2019-04-03T19:42:57.518Z,10.40
2019-04-03T19:45:27.164Z,10.97
2019-04-03T19:47:56.673Z,12.13
2019-04-03T19:50:26.322Z,11.70
2019-04-03T19:52:55.939Z,11.33
2019-04-03T19:55:25.527Z,11.43
2019-04-03T19:57:57.462Z,11.67
2019-04-03T20:00:26.479Z,11.93
2019-04-03T20:02:56.055Z,11.70
2019-04-03T20:05:25.660Z,11.67
2019-04-03T20:07:55.231Z,10.83
2019-04-03T20:10:25.207Z,11.73
2019-04-03T20:12:54.749Z,11.37
2019-04-03T20:15:24.286Z,11.87
2019-04-03T20:17:54.986Z,12.30
2019-04-03T20:20:25.362Z,11.93
2019-04-03T20:22:54.924Z,12.60
2019-04-03T20:25:24.511Z,12.27
2019-04-03T20:27:56.746Z,11.50
2019-04-03T20:30:25.232Z,12.37
2019-04-03T20:32:54.704Z,12.33
2019-04-03T20:35:24.209Z,12.23
2019-04-03T20:37:56.767Z,12.27
2019-04-03T20:40:25.065Z,12.17
2019-04-03T20:42:54.698Z,11.83
2019-04-03T20:45:24.392Z,12.23
2019-04-03T20:47:53.909Z,12.00
2019-04-03T20:50:23.435Z,11.90
2019-04-03T20:52:52.937Z,12.50
2019-04-03T20:55:24.655Z,11.93
2019-04-03T20:57:55.862Z,13.47
2019-04-03T21:00:25.058Z,12.50
2019-04-03T21:02:54.585Z,11.67
2019-04-03T21:05:24.171Z,12.73
2019-04-03T21:07:55.606Z,12.50
2019-04-03T21:10:24.891Z,12.57
2019-04-03T21:12:54.501Z,12.43
2019-04-03T21:15:23.992Z,11.53
2019-04-03T21:17:53.517Z,12.40
2019-04-03T21:20:23.758Z,12.63
2019-04-03T21:22:53.777Z,12.23
2019-04-03T21:25:23.284Z,12.20
2019-04-03T21:27:52.769Z,12.03
2019-04-03T21:30:24.050Z,12.03
2019-04-03T21:32:53.642Z,12.47
2019-04-03T21:35:23.233Z,12.87
2019-04-03T21:37:52.797Z,13.00
2019-04-03T21:40:22.404Z,12.10
2019-04-03T21:42:51.892Z,11.83
2019-04-03T21:45:21.395Z,12.20
2019-04-03T21:47:50.923Z,11.57
2019-04-03T21:50:20.509Z,11.57
2019-04-03T21:52:50.041Z,10.93
2019-04-03T21:55:19.729Z,11.87
2019-04-03T21:57:49.436Z,11.23
2019-04-03T22:00:36.520Z,13.03
2019-04-03T22:03:06.922Z,11.63
2019-04-03T22:05:36.631Z,11.23
2019-04-03T22:08:06.317Z,11.87
2019-04-03T22:10:35.887Z,11.77
2019-04-03T22:13:07.712Z,12.83
2019-04-03T22:15:36.807Z,12.17
2019-04-03T22:18:06.471Z,11.63
2019-04-03T22:20:36.240Z,11.77
2019-04-03T22:23:05.860Z,12.00
2019-04-03T22:25:36.138Z,11.87
2019-04-03T22:28:05.768Z,11.13
2019-04-03T22:30:35.323Z,11.93
2019-04-03T22:33:04.791Z,11.00
2019-04-03T22:35:34.557Z,11.23
2019-04-03T22:38:16.243Z,11.53
2019-04-03T22:40:45.724Z,10.93
2019-04-03T22:43:15.496Z,11.23
2019-04-03T22:45:45.689Z,10.67
2019-04-03T22:48:15.547Z,11.50
2019-04-03T22:50:45.102Z,10.93
2019-04-03T22:53:14.525Z,11.20
2019-04-03T22:55:44.614Z,10.87
2019-04-03T22:58:15.097Z,12.13
2019-04-03T23:00:44.711Z,11.33
2019-04-03T23:03:14.171Z,11.43
2019-04-03T23:05:43.608Z,10.70
2019-04-03T23:08:13.065Z,11.37
2019-04-03T23:10:42.515Z,9.90
2019-04-03T23:13:12.039Z,10.23
2019-04-03T23:15:41.462Z,10.73
2019-04-03T23:18:11.031Z,10.60
2019-04-03T23:20:40.468Z,10.83
2019-04-03T23:23:09.844Z,9.87
2019-04-03T23:25:40.198Z,10.90
2019-04-03T23:28:09.668Z,10.47
2019-04-03T23:30:40.900Z,10.17
2019-04-03T23:33:10.250Z,10.00
2019-04-03T23:35:39.666Z,10.37
2019-04-03T23:38:09.226Z,10.60
2019-04-03T23:40:38.814Z,9.80
2019-04-03T23:43:08.951Z,10.17
2019-04-03T23:45:39.148Z,10.33
2019-04-03T23:48:08.658Z,10.60
2019-04-03T23:50:38.217Z,9.73
2019-04-03T23:53:07.668Z,11.00
2019-04-03T23:55:37.247Z,11.10
2019-04-03T23:58:06.769Z,10.63
